Time;durP1;ratioP1;P1;durP2;ratioP2;P2;SDS_P1;SDS_P2;PMS_P1;PMS_P2;Temp;Humidity;BMP_temperature;BMP_pressure;BME280_temperature;BME280_humidity;BME280_pressure;Samples;Min_cycle;Max_cycle;Signal;HPM_P1;HPM_P2
2023/09/05 00:01:09;;;;;;;4.88;3.15;;;;;;;;;;5089642;28;20057;-71
2023/09/05 00:03:34;;;;;;;4.30;2.78;;;;;;;;;;5080126;28;20470;-72
2023/09/05 00:06:00;;;;;;;4.95;2.92;;;;;;;;;;5076295;28;20438;-71
2023/09/05 00:08:25;;;;;;;4.10;2.85;;;;;;;;;;5076684;28;20459;-71
2023/09/05 00:10:51;;;;;;;6.07;3.35;;;;;;;;;;5079048;28;20170;-71
2023/09/05 00:13:16;;;;;;;4.85;3.22;;;;;;;;;;5076718;28;20024;-71
2023/09/05 00:15:41;;;;;;;4.00;2.30;;;;;;;;;;5076720;28;20025;-71
2023/09/05 00:18:06;;;;;;;4.97;3.07;;;;;;;;;;5076459;28;20349;-71
2023/09/05 00:20:31;;;;;;;5.30;2.65;;;;;;;;;;5078732;28;20302;-71
2023/09/05 00:22:57;;;;;;;6.80;3.03;;;;;;;;;;5086579;28;20031;-72
2023/09/05 00:25:22;;;;;;;6.25;3.10;;;;;;;;;;5075248;28;20803;-72
2023/09/05 00:27:47;;;;;;;7.27;2.23;;;;;;;;;;5077676;28;20024;-72
2023/09/05 00:30:14;;;;;;;4.97;3.10;;;;;;;;;;5083002;28;20836;-72
2023/09/05 00:32:40;;;;;;;4.68;3.00;;;;;;;;;;5077889;28;20350;-71
2023/09/05 00:35:06;;;;;;;4.68;3.28;;;;;;;;;;5064422;28;20379;-72
2023/09/05 00:37:31;;;;;;;4.28;2.83;;;;;;;;;;5081129;28;20054;-72
2023/09/05 00:39:56;;;;;;;4.65;2.85;;;;;;;;;;5080116;28;20062;-71
2023/09/05 00:42:22;;;;;;;4.80;2.90;;;;;;;;;;5080834;28;20032;-71
2023/09/05 00:44:48;;;;;;;4.57;3.30;;;;;;;;;;5077916;28;20286;-72
2023/09/05 00:47:13;;;;;;;5.78;2.90;;;;;;;;;;5084669;28;20273;-72
2023/09/05 00:49:41;;;;;;;4.05;3.00;;;;;;;;;;5076077;28;20520;-72
2023/09/05 00:52:07;;;;;;;5.60;3.13;;;;;;;;;;5078931;28;20027;-72
2023/09/05 00:54:36;;;;;;;4.15;2.85;;;;;;;;;;5084678;28;20020;-73
2023/09/05 00:57:02;;;;;;;4.85;3.05;;;;;;;;;;5074896;28;20510;-72
2023/09/05 00:59:27;;;;;;;6.00;3.05;;;;;;;;;;5076756;28;20107;-72
2023/09/05 01:01:55;;;;;;;4.32;2.92;;;;;;;;;;5078937;28;20051;-72
2023/09/05 01:04:21;;;;;;;4.40;2.90;;;;;;;;;;5076502;28;20021;-72
2023/09/05 01:06:56;;;;;;;4.20;3.13;;;;;;;;;;5080533;28;20102;-72
2023/09/05 01:09:27;;;;;;;4.47;2.70;;;;;;;;;;5077793;28;20028;-71
2023/09/05 01:11:52;;;;;;;4.53;3.15;;;;;;;;;;5082218;28;20028;-72
2023/09/05 01:14:18;;;;;;;6.25;3.17;;;;;;;;;;5066719;28;20020;-72
2023/09/05 01:16:46;;;;;;;4.53;2.90;;;;;;;;;;5092249;28;20028;-71
2023/09/05 01:19:15;;;;;;;4.18;2.63;;;;;;;;;;5090772;28;20077;-72
2023/09/05 01:22:01;;;;;;;5.00;3.33;;;;;;;;;;5091975;28;20066;-72
2023/09/05 01:24:26;;;;;;;4.90;2.88;;;;;;;;;;5089273;28;20062;-73
2023/09/05 01:26:52;;;;;;;3.95;2.70;;;;;;;;;;5091606;28;20522;-73
2023/09/05 01:29:29;;;;;;;4.80;2.92;;;;;;;;;;5090777;28;20019;-73
2023/09/05 01:31:55;;;;;;;4.20;2.67;;;;;;;;;;5091029;28;20530;-73
2023/09/05 01:34:20;;;;;;;5.05;2.95;;;;;;;;;;5091133;28;20099;-73
2023/09/05 01:36:46;;;;;;;4.87;2.87;;;;;;;;;;5089917;28;20394;-73
2023/09/05 01:39:11;;;;;;;3.53;2.70;;;;;;;;;;5079056;28;20346;-71
2023/09/05 01:41:36;;;;;;;3.30;2.60;;;;;;;;;;5089490;28;20401;-71
2023/09/05 01:44:01;;;;;;;4.63;3.37;;;;;;;;;;5090968;28;20289;-72
2023/09/05 01:46:26;;;;;;;4.47;2.90;;;;;;;;;;5089806;28;20266;-71
2023/09/05 01:48:52;;;;;;;5.07;2.95;;;;;;;;;;5088353;28;20427;-71
2023/09/05 01:51:17;;;;;;;5.50;3.13;;;;;;;;;;5088398;28;20028;-71
2023/09/05 01:53:42;;;;;;;6.93;2.88;;;;;;;;;;5087328;28;20105;-72
2023/09/05 01:56:07;;;;;;;5.40;2.10;;;;;;;;;;5080234;28;20020;-72
2023/09/05 01:58:33;;;;;;;5.83;2.97;;;;;;;;;;5087694;28;20270;-72
2023/09/05 02:01:02;;;;;;;5.05;2.67;;;;;;;;;;5090944;28;20353;-73
2023/09/05 02:03:28;;;;;;;5.25;2.72;;;;;;;;;;5088641;28;20111;-73
2023/09/05 02:05:53;;;;;;;4.25;2.70;;;;;;;;;;5076104;28;20112;-73
2023/09/05 02:08:18;;;;;;;3.72;2.38;;;;;;;;;;5072253;28;20032;-73
2023/09/05 02:10:44;;;;;;;3.83;2.50;;;;;;;;;;5083427;28;20095;-72
2023/09/05 02:13:10;;;;;;;4.28;2.50;;;;;;;;;;5071728;28;20277;-69
2023/09/05 02:15:36;;;;;;;4.63;3.00;;;;;;;;;;5081924;28;20028;-70
2023/09/05 02:18:02;;;;;;;5.10;3.03;;;;;;;;;;5091654;28;20028;-70
2023/09/05 02:20:27;;;;;;;5.00;2.85;;;;;;;;;;5092005;28;20386;-70
2023/09/05 02:22:52;;;;;;;4.30;3.03;;;;;;;;;;5085614;28;20077;-70
2023/09/05 02:25:18;;;;;;;3.87;2.70;;;;;;;;;;5087200;28;20027;-70
2023/09/05 02:27:43;;;;;;;5.72;2.72;;;;;;;;;;5090734;28;20270;-70
2023/09/05 02:30:08;;;;;;;4.87;2.70;;;;;;;;;;5089760;28;20462;-70
2023/09/05 02:32:33;;;;;;;5.38;2.95;;;;;;;;;;5079684;28;20289;-70
2023/09/05 02:34:59;;;;;;;7.30;2.72;;;;;;;;;;5072126;28;20052;-70
2023/09/05 02:37:25;;;;;;;5.70;3.00;;;;;;;;;;5072816;28;20040;-72
2023/09/05 02:39:50;;;;;;;4.55;2.53;;;;;;;;;;5073345;28;20097;-71
2023/09/05 02:42:15;;;;;;;4.22;2.50;;;;;;;;;;5071124;28;20023;-71
2023/09/05 02:44:40;;;;;;;3.60;2.40;;;;;;;;;;5071836;28;20056;-71
2023/09/05 02:47:06;;;;;;;4.38;2.88;;;;;;;;;;5071673;28;20040;-71
2023/09/05 02:49:31;;;;;;;4.28;2.85;;;;;;;;;;5072013;28;20104;-71
2023/09/05 02:51:57;;;;;;;4.28;2.50;;;;;;;;;;5075961;28;20024;-71
2023/09/05 02:54:22;;;;;;;4.55;2.53;;;;;;;;;;5079690;28;20111;-72
2023/09/05 02:56:47;;;;;;;4.50;2.58;;;;;;;;;;5070892;28;20025;-71
2023/09/05 02:59:13;;;;;;;4.30;2.35;;;;;;;;;;5082422;28;20028;-71
2023/09/05 03:01:38;;;;;;;5.15;2.75;;;;;;;;;;5090364;28;20024;-71
2023/09/05 03:04:03;;;;;;;4.57;2.30;;;;;;;;;;5090817;28;20024;-70
2023/09/05 03:06:29;;;;;;;4.45;2.45;;;;;;;;;;5090186;28;20262;-71
2023/09/05 03:08:54;;;;;;;5.27;2.50;;;;;;;;;;5090825;28;20024;-71
2023/09/05 03:11:19;;;;;;;4.33;2.53;;;;;;;;;;5072656;28;20267;-71
2023/09/05 03:13:45;;;;;;;3.92;2.72;;;;;;;;;;5071181;28;20285;-71
2023/09/05 03:16:12;;;;;;;5.43;2.70;;;;;;;;;;5083664;28;20391;-70
2023/09/05 03:18:37;;;;;;;4.18;2.45;;;;;;;;;;5071816;28;20012;-70
2023/09/05 03:21:02;;;;;;;4.82;2.83;;;;;;;;;;5073211;28;20021;-70
2023/09/05 03:23:28;;;;;;;3.33;2.20;;;;;;;;;;5071997;28;20087;-70
2023/09/05 03:25:53;;;;;;;5.17;2.80;;;;;;;;;;5072756;28;20032;-70
2023/09/05 03:28:18;;;;;;;4.63;2.65;;;;;;;;;;5070421;28;20378;-70
2023/09/05 03:30:44;;;;;;;7.03;2.80;;;;;;;;;;5073305;28;20044;-70
2023/09/05 03:33:09;;;;;;;3.97;2.50;;;;;;;;;;5074011;28;20032;-69
2023/09/05 03:35:35;;;;;;;4.82;2.85;;;;;;;;;;5076691;28;20020;-70
2023/09/05 03:38:00;;;;;;;3.78;2.40;;;;;;;;;;5072095;28;20020;-70
2023/09/05 03:40:26;;;;;;;3.22;2.22;;;;;;;;;;5085244;28;20537;-71
2023/09/05 03:42:51;;;;;;;5.50;2.78;;;;;;;;;;5070767;28;20375;-70
2023/09/05 03:45:17;;;;;;;3.80;2.37;;;;;;;;;;5072129;28;20028;-70
2023/09/05 03:47:43;;;;;;;4.25;2.60;;;;;;;;;;5073384;28;20295;-70
2023/09/05 03:50:08;;;;;;;4.00;2.50;;;;;;;;;;5087023;28;20056;-70
2023/09/05 03:52:33;;;;;;;5.78;2.60;;;;;;;;;;5074492;28;20021;-70
2023/09/05 03:54:59;;;;;;;4.03;2.70;;;;;;;;;;5075005;28;20040;-71
2023/09/05 03:57:24;;;;;;;4.07;2.67;;;;;;;;;;5074297;28;20285;-71
2023/09/05 03:59:49;;;;;;;4.50;2.72;;;;;;;;;;5075228;28;20299;-71
2023/09/05 04:02:15;;;;;;;4.60;2.92;;;;;;;;;;5082100;28;20032;-70
2023/09/05 04:04:40;;;;;;;3.55;2.28;;;;;;;;;;5075328;28;20040;-70
2023/09/05 04:07:06;;;;;;;3.55;2.60;;;;;;;;;;5075204;28;20052;-70
2023/09/05 04:09:31;;;;;;;4.97;3.00;;;;;;;;;;5075216;28;20051;-70
2023/09/05 04:11:56;;;;;;;7.53;2.63;;;;;;;;;;5092826;28;20016;-72
2023/09/05 04:14:21;;;;;;;4.00;2.72;;;;;;;;;;5079567;28;20279;-71
2023/09/05 04:16:47;;;;;;;4.47;2.53;;;;;;;;;;5085042;28;20479;-71
2023/09/05 04:19:12;;;;;;;3.60;2.50;;;;;;;;;;5088041;28;20625;-72
2023/09/05 04:21:39;;;;;;;6.18;3.17;;;;;;;;;;5093629;28;20305;-71
2023/09/05 04:24:04;;;;;;;3.90;2.72;;;;;;;;;;5091692;28;20020;-73
2023/09/05 04:26:29;;;;;;;6.20;3.05;;;;;;;;;;5092440;28;20020;-72
2023/09/05 04:28:55;;;;;;;4.40;2.58;;;;;;;;;;5087106;28;20016;-73
2023/09/05 04:31:21;;;;;;;6.73;2.87;;;;;;;;;;5084616;28;20494;-72
2023/09/05 04:33:46;;;;;;;4.57;3.10;;;;;;;;;;5075880;28;20288;-72
2023/09/05 04:36:11;;;;;;;9.07;2.70;;;;;;;;;;5076432;28;20024;-70
2023/09/05 04:38:37;;;;;;;3.45;2.35;;;;;;;;;;5079128;28;20020;-72
2023/09/05 04:41:02;;;;;;;4.85;3.13;;;;;;;;;;5088767;28;20038;-73
2023/09/05 04:43:29;;;;;;;4.40;2.67;;;;;;;;;;5086533;28;20039;-72
2023/09/05 04:45:55;;;;;;;3.95;2.17;;;;;;;;;;5085068;28;20026;-72
2023/09/05 04:48:20;;;;;;;5.63;3.08;;;;;;;;;;5085665;28;20147;-71
2023/09/05 04:50:45;;;;;;;4.90;3.30;;;;;;;;;;5085570;28;20095;-72
2023/09/05 04:53:10;;;;;;;5.35;2.72;;;;;;;;;;5085098;28;20043;-72
2023/09/05 04:55:36;;;;;;;5.32;2.90;;;;;;;;;;5071608;28;20047;-72
2023/09/05 04:58:01;;;;;;;6.22;2.95;;;;;;;;;;5080714;28;20101;-72
2023/09/05 05:00:26;;;;;;;6.70;2.75;;;;;;;;;;5083320;28;20024;-72
2023/09/05 05:02:51;;;;;;;5.03;2.85;;;;;;;;;;5085384;28;20079;-71
2023/09/05 05:05:17;;;;;;;4.57;2.88;;;;;;;;;;5080514;28;20021;-71
2023/09/05 05:07:42;;;;;;;4.85;2.88;;;;;;;;;;5079384;28;20140;-72
2023/09/05 05:10:07;;;;;;;6.20;2.93;;;;;;;;;;5087519;28;20070;-72
2023/09/05 05:12:33;;;;;;;4.82;2.90;;;;;;;;;;5083684;28;20262;-72
2023/09/05 05:14:58;;;;;;;4.63;3.00;;;;;;;;;;5079383;28;20118;-72
2023/09/05 05:17:23;;;;;;;4.43;2.80;;;;;;;;;;5091918;28;20025;-72
2023/09/05 05:19:48;;;;;;;5.05;2.60;;;;;;;;;;5085710;28;20753;-71
2023/09/05 05:22:14;;;;;;;5.05;3.08;;;;;;;;;;5085286;28;20032;-71
2023/09/05 05:24:39;;;;;;;4.40;2.80;;;;;;;;;;5090804;28;20028;-72
2023/09/05 05:27:06;;;;;;;4.30;2.77;;;;;;;;;;5092026;28;20429;-72
2023/09/05 05:29:32;;;;;;;4.22;2.78;;;;;;;;;;5091104;28;20357;-73
2023/09/05 05:31:58;;;;;;;5.80;2.83;;;;;;;;;;5091563;28;20016;-72
2023/09/05 05:34:23;;;;;;;4.93;3.08;;;;;;;;;;5090515;28;20026;-72
2023/09/05 05:36:48;;;;;;;4.77;3.10;;;;;;;;;;5090834;28;20466;-72
2023/09/05 05:39:14;;;;;;;5.43;2.75;;;;;;;;;;5090774;28;20659;-72
2023/09/05 05:41:39;;;;;;;7.00;3.30;;;;;;;;;;5091288;28;20034;-72
2023/09/05 05:44:04;;;;;;;4.33;2.70;;;;;;;;;;5078152;28;20373;-72
2023/09/05 05:46:32;;;;;;;4.57;2.58;;;;;;;;;;5090631;28;20285;-72
2023/09/05 05:48:58;;;;;;;4.35;2.70;;;;;;;;;;5090438;28;20034;-72
2023/09/05 05:51:25;;;;;;;4.28;3.00;;;;;;;;;;5090485;28;20024;-71
2023/09/05 05:53:50;;;;;;;4.75;2.58;;;;;;;;;;5078488;28;20028;-72
2023/09/05 05:56:16;;;;;;;4.00;2.30;;;;;;;;;;5090397;28;20035;-72
2023/09/05 05:58:41;;;;;;;5.50;2.90;;;;;;;;;;5091456;28;20444;-72
2023/09/05 06:01:07;;;;;;;5.53;3.00;;;;;;;;;;5078492;28;20498;-72
2023/09/05 06:03:35;;;;;;;4.45;2.65;;;;;;;;;;5091383;28;20012;-71
2023/09/05 06:06:00;;;;;;;3.95;2.92;;;;;;;;;;5090631;28;20024;-72
2023/09/05 06:08:26;;;;;;;5.15;2.70;;;;;;;;;;5090598;28;20477;-72
2023/09/05 06:10:51;;;;;;;5.13;2.33;;;;;;;;;;5089840;28;20077;-72
2023/09/05 06:13:16;;;;;;;4.18;2.55;;;;;;;;;;5084096;28;20029;-72
2023/09/05 06:15:41;;;;;;;5.07;2.75;;;;;;;;;;5084333;28;20028;-72
2023/09/05 06:18:08;;;;;;;4.03;2.70;;;;;;;;;;5075174;28;20031;-72
2023/09/05 06:20:34;;;;;;;3.53;2.30;;;;;;;;;;5071827;28;20456;-72
2023/09/05 06:22:59;;;;;;;4.88;2.80;;;;;;;;;;5080228;28;20059;-72
2023/09/05 06:25:25;;;;;;;4.53;2.67;;;;;;;;;;5071291;28;20024;-71
2023/09/05 06:27:50;;;;;;;3.83;2.08;;;;;;;;;;5076474;28;20024;-71
2023/09/05 06:30:16;;;;;;;3.75;2.35;;;;;;;;;;5090334;28;20031;-71
2023/09/05 06:32:41;;;;;;;7.20;3.08;;;;;;;;;;5088283;28;20067;-71
2023/09/05 06:35:07;;;;;;;3.92;2.72;;;;;;;;;;5090299;28;20027;-71
2023/09/05 06:37:35;;;;;;;4.47;2.90;;;;;;;;;;5089415;28;20126;-71
2023/09/05 06:40:01;;;;;;;4.47;2.70;;;;;;;;;;5089977;28;20485;-71
2023/09/05 06:42:26;;;;;;;5.77;2.83;;;;;;;;;;5089903;28;20024;-71
2023/09/05 06:44:51;;;;;;;5.38;2.63;;;;;;;;;;5090175;28;20841;-71
2023/09/05 06:47:17;;;;;;;5.88;3.40;;;;;;;;;;5089939;28;20016;-71
2023/09/05 06:49:42;;;;;;;5.60;3.03;;;;;;;;;;5090031;28;20113;-71
2023/09/05 06:52:07;;;;;;;5.82;3.30;;;;;;;;;;5088169;28;20306;-71
2023/09/05 06:54:33;;;;;;;5.90;3.42;;;;;;;;;;5086862;28;20107;-72
2023/09/05 06:56:58;;;;;;;6.13;3.20;;;;;;;;;;5087510;28;20028;-71
2023/09/05 06:59:23;;;;;;;5.93;3.33;;;;;;;;;;5078358;28;20825;-71
2023/09/05 07:01:49;;;;;;;5.47;3.13;;;;;;;;;;5077554;28;20024;-70
2023/09/05 07:04:14;;;;;;;5.20;3.40;;;;;;;;;;5086351;28;20020;-70
2023/09/05 07:06:40;;;;;;;8.18;3.67;;;;;;;;;;5070776;28;20035;-71
2023/09/05 07:09:06;;;;;;;4.03;2.92;;;;;;;;;;5071724;28;20364;-71
2023/09/05 07:11:31;;;;;;;7.03;3.58;;;;;;;;;;5084170;28;20421;-72
2023/09/05 07:13:56;;;;;;;5.60;3.30;;;;;;;;;;5073924;28;20033;-72
2023/09/05 07:16:27;;;;;;;6.13;2.92;;;;;;;;;;5071557;28;20021;-71
2023/09/05 07:18:53;;;;;;;6.68;3.30;;;;;;;;;;5074330;28;20035;-71
2023/09/05 07:21:18;;;;;;;5.40;3.50;;;;;;;;;;5079143;28;20023;-69
2023/09/05 07:23:43;;;;;;;5.55;3.47;;;;;;;;;;5093318;28;20024;-69
2023/09/05 07:26:08;;;;;;;5.25;3.30;;;;;;;;;;5088538;28;20420;-68
2023/09/05 07:28:34;;;;;;;6.57;3.30;;;;;;;;;;5079226;28;20024;-71
2023/09/05 07:30:59;;;;;;;5.80;3.35;;;;;;;;;;5089028;28;20027;-70
2023/09/05 07:33:25;;;;;;;5.03;3.35;;;;;;;;;;5085730;28;20031;-70
2023/09/05 07:35:50;;;;;;;8.95;3.63;;;;;;;;;;5091345;28;20055;-72
2023/09/05 07:38:17;;;;;;;6.07;3.40;;;;;;;;;;5089323;28;20447;-69
2023/09/05 07:40:42;;;;;;;7.05;2.97;;;;;;;;;;5084097;28;20025;-72
2023/09/05 07:43:07;;;;;;;7.22;3.47;;;;;;;;;;5089340;28;20034;-71
2023/09/05 07:45:33;;;;;;;5.73;3.63;;;;;;;;;;5084020;28;20017;-71
2023/09/05 07:47:58;;;;;;;5.68;3.28;;;;;;;;;;5088899;28;20266;-72
2023/09/05 07:50:23;;;;;;;5.70;3.07;;;;;;;;;;5086129;28;20049;-71
2023/09/05 07:52:49;;;;;;;5.80;3.13;;;;;;;;;;5086846;28;20281;-71
2023/09/05 07:55:14;;;;;;;5.35;2.90;;;;;;;;;;5080633;28;20114;-71
2023/09/05 07:57:39;;;;;;;7.78;3.00;;;;;;;;;;5078918;28;20035;-71
2023/09/05 08:00:08;;;;;;;7.83;3.20;;;;;;;;;;5088331;28;20028;-70
2023/09/05 08:02:34;;;;;;;5.45;3.25;;;;;;;;;;5084634;28;20614;-72
2023/09/05 08:04:59;;;;;;;4.63;3.00;;;;;;;;;;5080916;28;20069;-72
2023/09/05 08:07:24;;;;;;;4.50;2.85;;;;;;;;;;5090714;28;20802;-72
2023/09/05 08:09:50;;;;;;;5.33;3.00;;;;;;;;;;5086399;28;20394;-72
2023/09/05 08:12:17;;;;;;;4.78;3.10;;;;;;;;;;5093921;28;20270;-72
2023/09/05 08:14:42;;;;;;;4.95;2.78;;;;;;;;;;5080331;28;20450;-72
2023/09/05 08:17:08;;;;;;;6.82;2.83;;;;;;;;;;5093829;28;20024;-72
2023/09/05 08:19:33;;;;;;;4.87;2.57;;;;;;;;;;5088364;28;20027;-72
2023/09/05 08:21:58;;;;;;;5.07;2.65;;;;;;;;;;5084816;28;20337;-72
2023/09/05 08:24:24;;;;;;;4.27;2.17;;;;;;;;;;5092899;28;20047;-72
2023/09/05 08:26:49;;;;;;;4.35;2.70;;;;;;;;;;5093401;28;20285;-72
2023/09/05 08:29:14;;;;;;;5.73;2.37;;;;;;;;;;5093096;28;20020;-72
2023/09/05 08:31:40;;;;;;;5.90;2.60;;;;;;;;;;5093467;28;20262;-72
2023/09/05 08:34:05;;;;;;;4.38;2.20;;;;;;;;;;5092228;28;20035;-72
2023/09/05 08:36:31;;;;;;;5.13;1.88;;;;;;;;;;5083045;28;20081;-72
2023/09/05 08:38:57;;;;;;;3.58;2.55;;;;;;;;;;5074156;28;20024;-72
2023/09/05 08:41:22;;;;;;;4.63;2.70;;;;;;;;;;5073915;28;20111;-72
2023/09/05 08:43:47;;;;;;;4.55;2.42;;;;;;;;;;5073700;28;20021;-72
2023/09/05 08:46:13;;;;;;;5.53;2.58;;;;;;;;;;5073962;28;20029;-72
2023/09/05 08:48:38;;;;;;;5.55;2.20;;;;;;;;;;5075585;28;20474;-72
2023/09/05 08:51:04;;;;;;;4.18;2.10;;;;;;;;;;5074576;28;20399;-72
2023/09/05 08:53:41;;;;;;;7.13;2.25;;;;;;;;;;5076520;28;20032;-72
2023/09/05 08:56:07;;;;;;;5.40;2.17;;;;;;;;;;5076131;28;20032;-72
2023/09/05 08:58:33;;;;;;;3.90;2.00;;;;;;;;;;5078418;28;20106;-72
2023/09/05 09:00:58;;;;;;;4.28;2.15;;;;;;;;;;5076093;28;20052;-72
2023/09/05 09:03:23;;;;;;;5.25;2.20;;;;;;;;;;5085296;28;20371;-72
2023/09/05 09:05:49;;;;;;;5.67;2.00;;;;;;;;;;5075650;28;20036;-72
2023/09/05 09:08:18;;;;;;;4.43;2.45;;;;;;;;;;5078877;28;20274;-71
2023/09/05 09:11:03;;;;;;;4.55;2.10;;;;;;;;;;5086475;28;20032;-71
2023/09/05 09:13:28;;;;;;;4.40;1.83;;;;;;;;;;5084713;28;20489;-71
2023/09/05 09:15:53;;;;;;;4.97;2.37;;;;;;;;;;5073710;28;20021;-71
2023/09/05 09:18:20;;;;;;;5.18;2.00;;;;;;;;;;5093001;28;20729;-72
2023/09/05 09:20:46;;;;;;;4.28;2.08;;;;;;;;;;5091460;28;20028;-71
2023/09/05 09:23:11;;;;;;;2.90;1.73;;;;;;;;;;5072993;28;20102;-71
2023/09/05 09:25:46;;;;;;;6.57;1.70;;;;;;;;;;5085510;28;20059;-71
2023/09/05 09:28:19;;;;;;;4.20;1.63;;;;;;;;;;5082149;28;20016;-71
2023/09/05 09:30:45;;;;;;;8.10;2.00;;;;;;;;;;5082214;28;20371;-72
2023/09/05 09:33:13;;;;;;;4.05;2.00;;;;;;;;;;5073682;28;20032;-71
2023/09/05 09:35:39;;;;;;;6.20;1.80;;;;;;;;;;5075547;28;20029;-71
2023/09/05 09:38:04;;;;;;;3.20;1.67;;;;;;;;;;5074206;28;20111;-71
2023/09/05 09:40:35;;;;;;;6.32;2.17;;;;;;;;;;5075045;28;20266;-71
2023/09/05 09:43:00;;;;;;;4.40;2.10;;;;;;;;;;5073880;28;20077;-71
2023/09/05 09:45:27;;;;;;;3.43;1.60;;;;;;;;;;5074435;28;20111;-71
2023/09/05 09:47:53;;;;;;;3.10;1.80;;;;;;;;;;5074008;28;20279;-72
2023/09/05 09:50:19;;;;;;;5.22;1.85;;;;;;;;;;5075383;28;20027;-71
2023/09/05 09:52:46;;;;;;;3.97;1.92;;;;;;;;;;5073794;28;20025;-71
2023/09/05 09:55:13;;;;;;;3.38;1.70;;;;;;;;;;5075116;28;20017;-71
2023/09/05 09:57:44;;;;;;;5.85;2.25;;;;;;;;;;5073873;28;20082;-71
2023/09/05 10:00:09;;;;;;;3.30;1.83;;;;;;;;;;5073707;28;20020;-71
2023/09/05 10:02:37;;;;;;;5.30;2.00;;;;;;;;;;5074883;28;20043;-72
2023/09/05 10:05:02;;;;;;;3.92;1.98;;;;;;;;;;5074739;28;20077;-71
2023/09/05 10:07:28;;;;;;;3.35;1.88;;;;;;;;;;5074020;28;20096;-71
2023/09/05 10:09:54;;;;;;;3.63;2.22;;;;;;;;;;5079897;28;20099;-70
2023/09/05 10:12:21;;;;;;;3.35;2.00;;;;;;;;;;5091703;28;20123;-71
2023/09/05 10:14:46;;;;;;;3.47;1.90;;;;;;;;;;5072351;28;20039;-72
2023/09/05 10:17:15;;;;;;;3.38;1.55;;;;;;;;;;5072078;28;20032;-72
2023/09/05 10:19:42;;;;;;;5.75;1.98;;;;;;;;;;5073206;28;20024;-71
2023/09/05 10:22:09;;;;;;;3.55;1.83;;;;;;;;;;5072318;28;20064;-71
2023/09/05 10:24:35;;;;;;;5.82;1.90;;;;;;;;;;5072907;28;20025;-71
2023/09/05 10:27:00;;;;;;;4.50;1.95;;;;;;;;;;5072572;28;20040;-71
2023/09/05 10:29:35;;;;;;;3.30;1.85;;;;;;;;;;5072962;28;20150;-72
2023/09/05 10:32:00;;;;;;;;;;;;;;;;;;5073421;28;20055;-72
2023/09/05 10:35:04;;;;;;;4.47;1.70;;;;;;;;;;5072306;28;20371;-72
2023/09/05 10:37:34;;;;;;;3.40;2.00;;;;;;;;;;5028789;28;20029;-71
2023/09/05 10:40:07;;;;;;;3.90;1.60;;;;;;;;;;5028927;28;20045;-71
2023/09/05 10:42:32;;;;;;;4.15;1.75;;;;;;;;;;5053277;28;20044;-71
2023/09/05 10:45:27;;;;;;;3.42;1.70;;;;;;;;;;5073617;28;20031;-71
2023/09/05 10:47:56;;;;;;;2.58;1.60;;;;;;;;;;5046937;28;20107;-70
2023/09/05 10:50:22;;;;;;;3.90;2.17;;;;;;;;;;5074017;28;20062;-72
2023/09/05 10:52:49;;;;;;;3.70;1.80;;;;;;;;;;5080650;28;20033;-71
2023/09/05 10:55:29;;;;;;;3.25;1.77;;;;;;;;;;5075163;28;20024;-71
2023/09/05 10:57:54;;;;;;;4.70;1.75;;;;;;;;;;5075155;28;20021;-72
2023/09/05 11:00:20;;;;;;;3.00;1.70;;;;;;;;;;5082576;28;20048;-72
2023/09/05 11:02:46;;;;;;;4.47;1.95;;;;;;;;;;5082927;28;20414;-71
2023/09/05 11:05:12;;;;;;;4.65;1.77;;;;;;;;;;5075607;28;20024;-72
2023/09/05 11:07:42;;;;;;;3.53;1.65;;;;;;;;;;5076793;28;20040;-72
2023/09/05 11:10:11;;;;;;;2.75;1.50;;;;;;;;;;5083456;28;20035;-72
2023/09/05 11:12:37;;;;;;;3.83;1.80;;;;;;;;;;5091412;28;20035;-71
2023/09/05 11:15:04;;;;;;;7.45;2.13;;;;;;;;;;5074942;28;20067;-72
2023/09/05 11:17:30;;;;;;;3.17;1.60;;;;;;;;;;5076348;28;20082;-72
2023/09/05 11:19:55;;;;;;;3.47;1.60;;;;;;;;;;5075673;28;20475;-72
2023/09/05 11:22:22;;;;;;;2.90;1.70;;;;;;;;;;5076510;28;20028;-71
2023/09/05 11:24:51;;;;;;;3.53;1.50;;;;;;;;;;5075511;28;20279;-70
2023/09/05 11:27:16;;;;;;;3.03;1.83;;;;;;;;;;5075239;28;20024;-70
2023/09/05 11:29:42;;;;;;;4.07;1.93;;;;;;;;;;5083457;28;20435;-71
2023/09/05 11:32:07;;;;;;;3.70;1.80;;;;;;;;;;5080860;28;20382;-72
2023/09/05 11:34:33;;;;;;;5.07;1.85;;;;;;;;;;5074902;28;20016;-72
2023/09/05 11:36:59;;;;;;;3.58;1.63;;;;;;;;;;5075510;28;20489;-71
2023/09/05 11:39:27;;;;;;;4.38;2.20;;;;;;;;;;5082997;28;20122;-71
2023/09/05 11:41:54;;;;;;;3.70;1.70;;;;;;;;;;5079588;28;20081;-71
2023/09/05 11:44:29;;;;;;;4.00;1.60;;;;;;;;;;5075183;28;20105;-71
2023/09/05 11:46:55;;;;;;;4.10;1.92;;;;;;;;;;5076140;28;20376;-71
2023/09/05 11:49:20;;;;;;;3.83;1.60;;;;;;;;;;5081244;28;20052;-71
2023/09/05 11:51:46;;;;;;;3.47;1.70;;;;;;;;;;5076007;28;20017;-72
2023/09/05 11:54:11;;;;;;;3.75;1.70;;;;;;;;;;5074128;28;20025;-71
2023/09/05 11:56:36;;;;;;;3.77;1.50;;;;;;;;;;5077142;28;20529;-72
2023/09/05 11:59:01;;;;;;;3.08;1.40;;;;;;;;;;5094407;28;20270;-72
2023/09/05 12:01:30;;;;;;;2.50;1.37;;;;;;;;;;5091590;28;20452;-72
2023/09/05 12:04:03;;;;;;;3.33;1.60;;;;;;;;;;5092899;28;20289;-72
2023/09/05 12:06:32;;;;;;;3.75;1.60;;;;;;;;;;5091793;28;20027;-72
2023/09/05 12:08:57;;;;;;;2.85;1.70;;;;;;;;;;5089401;28;20057;-72
2023/09/05 12:11:24;;;;;;;2.85;1.50;;;;;;;;;;5060217;28;20024;-72
2023/09/05 12:13:54;;;;;;;3.00;1.52;;;;;;;;;;5081726;28;20025;-72
2023/09/05 12:16:20;;;;;;;3.35;1.63;;;;;;;;;;5080706;28;20024;-72
2023/09/05 12:18:45;;;;;;;2.85;1.40;;;;;;;;;;5084394;28;20402;-71
2023/09/05 12:21:10;;;;;;;5.47;1.33;;;;;;;;;;5091301;28;20359;-72
2023/09/05 12:23:36;;;;;;;2.90;1.33;;;;;;;;;;5093770;28;20035;-72
2023/09/05 12:26:02;;;;;;;3.10;1.57;;;;;;;;;;5089310;28;20028;-72
2023/09/05 12:28:29;;;;;;;7.40;1.70;;;;;;;;;;5073710;28;20036;-72
2023/09/05 12:31:05;;;;;;;5.82;1.63;;;;;;;;;;5078114;28;20027;-72
2023/09/05 12:33:31;;;;;;;3.20;1.38;;;;;;;;;;5093766;28;20068;-72
2023/09/05 12:35:56;;;;;;;3.63;1.38;;;;;;;;;;5090920;28;20098;-72
2023/09/05 12:38:21;;;;;;;3.43;1.40;;;;;;;;;;5092622;28;20028;-72
2023/09/05 12:40:47;;;;;;;4.05;1.50;;;;;;;;;;5091226;28;20286;-72
2023/09/05 12:43:12;;;;;;;3.47;1.58;;;;;;;;;;5092238;28;20028;-72
2023/09/05 12:45:37;;;;;;;3.13;1.70;;;;;;;;;;5090761;28;20024;-72
2023/09/05 12:48:03;;;;;;;2.70;1.60;;;;;;;;;;5092030;28;20039;-72
2023/09/05 12:50:29;;;;;;;3.15;1.40;;;;;;;;;;5089651;28;20749;-72
2023/09/05 12:52:55;;;;;;;3.00;1.67;;;;;;;;;;5091788;28;20095;-71
2023/09/05 12:55:20;;;;;;;2.10;1.17;;;;;;;;;;5089996;28;20415;-71
2023/09/05 12:57:46;;;;;;;3.47;1.60;;;;;;;;;;5081006;28;20028;-72
2023/09/05 13:00:12;;;;;;;3.53;1.95;;;;;;;;;;5088798;28;20023;-72
2023/09/05 13:02:37;;;;;;;3.65;1.60;;;;;;;;;;5091417;28;20111;-72
2023/09/05 13:05:03;;;;;;;3.97;1.48;;;;;;;;;;5089374;28;20016;-72
2023/09/05 13:07:29;;;;;;;3.45;1.63;;;;;;;;;;5091466;28;20032;-73
2023/09/05 13:09:54;;;;;;;5.07;1.80;;;;;;;;;;5084703;28;20020;-72
2023/09/05 13:12:19;;;;;;;2.30;1.20;;;;;;;;;;5085846;28;20016;-71
2023/09/05 13:14:45;;;;;;;4.72;1.35;;;;;;;;;;5072975;28;20021;-72
2023/09/05 13:17:11;;;;;;;3.40;1.58;;;;;;;;;;5073390;28;20021;-72
2023/09/05 13:19:36;;;;;;;5.95;1.40;;;;;;;;;;5072045;28;20043;-71
2023/09/05 13:22:01;;;;;;;2.90;1.23;;;;;;;;;;5073079;28;20079;-72
2023/09/05 13:24:26;;;;;;;5.63;1.60;;;;;;;;;;5073554;28;20020;-72
2023/09/05 13:26:54;;;;;;;4.97;1.43;;;;;;;;;;5072517;28;20746;-72
2023/09/05 13:29:19;;;;;;;2.97;1.40;;;;;;;;;;5089351;28;20024;-72
2023/09/05 13:31:44;;;;;;;3.60;1.33;;;;;;;;;;5092150;28;20085;-72
2023/09/05 13:34:10;;;;;;;4.90;1.70;;;;;;;;;;5090704;28;20024;-72
2023/09/05 13:36:35;;;;;;;3.80;1.40;;;;;;;;;;5091515;28;20458;-72
2023/09/05 13:39:01;;;;;;;4.25;1.50;;;;;;;;;;5090090;28;20023;-72
2023/09/05 13:41:28;;;;;;;2.97;1.40;;;;;;;;;;5090926;28;20060;-72
2023/09/05 13:43:53;;;;;;;3.50;1.65;;;;;;;;;;5091775;28;20027;-72
2023/09/05 13:46:19;;;;;;;3.03;1.40;;;;;;;;;;5091880;28;20016;-72
2023/09/05 13:48:47;;;;;;;3.03;1.48;;;;;;;;;;5091144;28;20028;-72
2023/09/05 13:51:15;;;;;;;4.30;1.77;;;;;;;;;;5091667;28;20043;-72
2023/09/05 13:53:40;;;;;;;2.72;1.40;;;;;;;;;;5089186;28;20471;-72
2023/09/05 13:56:10;;;;;;;2.67;1.30;;;;;;;;;;5090819;28;20061;-72
2023/09/05 13:58:35;;;;;;;3.92;1.23;;;;;;;;;;5088819;28;20050;-72
2023/09/05 14:01:00;;;;;;;4.37;1.40;;;;;;;;;;5090476;28;20032;-72
2023/09/05 14:03:26;;;;;;;3.53;1.40;;;;;;;;;;5084511;28;20033;-72
2023/09/05 14:05:51;;;;;;;4.22;1.60;;;;;;;;;;5083414;28;20534;-72
2023/09/05 14:08:16;;;;;;;3.87;1.30;;;;;;;;;;5088824;28;20045;-72
2023/09/05 14:10:42;;;;;;;3.13;1.37;;;;;;;;;;5079087;28;20275;-72
2023/09/05 14:13:08;;;;;;;3.47;1.25;;;;;;;;;;5072960;28;20705;-72
2023/09/05 14:15:33;;;;;;;2.43;1.20;;;;;;;;;;5072342;28;20032;-72
2023/09/05 14:17:58;;;;;;;3.17;1.80;;;;;;;;;;5085197;28;20344;-71
2023/09/05 14:20:26;;;;;;;5.17;1.40;;;;;;;;;;5083550;28;20028;-71
2023/09/05 14:22:51;;;;;;;3.25;1.40;;;;;;;;;;5072927;28;20070;-72
2023/09/05 14:25:16;;;;;;;4.60;1.40;;;;;;;;;;5083900;28;20032;-71
2023/09/05 14:27:41;;;;;;;3.30;1.50;;;;;;;;;;5091140;28;20077;-71
2023/09/05 14:30:07;;;;;;;3.37;1.43;;;;;;;;;;5085266;28;20028;-71
2023/09/05 14:32:32;;;;;;;2.97;1.52;;;;;;;;;;5074440;28;20028;-71
2023/09/05 14:34:57;;;;;;;4.13;1.30;;;;;;;;;;5091382;28;20445;-71
2023/09/05 14:37:23;;;;;;;2.63;1.43;;;;;;;;;;5084519;28;20259;-71